aviador You're here:

LEVT Decoded Metar

VITORIA in SPAIN
Report Time2018-04-26 22:30:00
UTC Time2018-04-26 22:54:58
Flight Rules vfr VFR
WindVRB at 01 kt
Visibility9999 m
Phenomena:N/A
Clouds:N/A
Expected CloudBase > 400 ft AGL from Temp-Dew spread
CeilingNone
Temp07°C (ISA -5)
Dew Point06°C (93% RH)
AAT5.7°C
QNH1015 hPa
Density Alt1,175 ft
Elevation1,670 ft
Report Wrong Elevation
Raw Report
LEVT 262230Z VRB01KT CAVOK 07/06 Q1015=

Extra information for LEVT:More info

Metar Taf Metar & Taf Last 4 Metars F.Rules Stats Wind Profile Meteogram Temp Stats Airport Information Weather charts Add Link Nearby VenuesMetar ALERT Operation Metar Decoded Social comments